createdAt,value
2018-04-24T00:00:28.909Z,14.20
2018-04-24T00:02:55.063Z,14.10
2018-04-24T00:05:21.224Z,14.00
2018-04-24T00:07:47.441Z,13.90
2018-04-24T00:10:13.680Z,13.90
2018-04-24T00:12:40.617Z,13.90
2018-04-24T00:15:06.831Z,13.90
2018-04-24T00:17:33.021Z,13.90
2018-04-24T00:19:59.229Z,13.80
2018-04-24T00:22:25.477Z,13.80
2018-04-24T00:24:51.649Z,13.80
2018-04-24T00:27:17.820Z,13.70
2018-04-24T00:29:43.992Z,13.80
2018-04-24T00:32:10.168Z,13.70
2018-04-24T00:34:36.398Z,13.70
2018-04-24T00:37:02.572Z,13.70
2018-04-24T00:39:28.731Z,13.60
2018-04-24T00:41:55.720Z,13.50
2018-04-24T00:44:21.888Z,13.50
2018-04-24T00:46:48.070Z,13.50
2018-04-24T00:49:14.286Z,13.50
2018-04-24T00:51:40.526Z,13.50
2018-04-24T00:54:06.662Z,13.60
2018-04-24T00:56:32.881Z,13.50
2018-04-24T00:58:59.078Z,13.50
2018-04-24T01:01:26.057Z,13.50
2018-04-24T01:03:52.232Z,13.50
2018-04-24T01:06:18.481Z,13.40
2018-04-24T01:08:45.442Z,13.30
2018-04-24T01:11:11.602Z,13.30
2018-04-24T01:13:37.806Z,13.30
2018-04-24T01:16:03.981Z,13.40
2018-04-24T01:18:30.194Z,13.30
2018-04-24T01:20:56.378Z,13.20
2018-04-24T01:23:22.653Z,13.20
2018-04-24T01:25:48.902Z,13.20
2018-04-24T01:28:15.071Z,13.10
2018-04-24T01:30:41.298Z,13.10
2018-04-24T01:33:07.487Z,13.00
2018-04-24T01:35:34.457Z,12.90
2018-04-24T01:38:00.661Z,12.90
2018-04-24T01:40:26.909Z,12.90
2018-04-24T01:42:53.815Z,12.80
2018-04-24T01:45:20.006Z,12.80
2018-04-24T01:47:46.151Z,12.80
2018-04-24T01:50:12.361Z,12.90
2018-04-24T01:52:38.491Z,12.80
2018-04-24T01:55:04.707Z,12.80
2018-04-24T01:57:30.873Z,12.80
2018-04-24T01:59:57.106Z,12.70
2018-04-24T02:02:23.291Z,12.70
2018-04-24T02:04:49.437Z,12.70
2018-04-24T02:07:15.590Z,12.70
2018-04-24T02:09:41.806Z,12.70
2018-04-24T02:12:07.978Z,12.80
2018-04-24T02:14:34.915Z,12.70
2018-04-24T02:17:01.893Z,12.70
2018-04-24T02:19:28.074Z,12.70
2018-04-24T02:21:54.313Z,12.70
2018-04-24T02:24:21.262Z,12.40
2018-04-24T02:26:48.193Z,12.40
2018-04-24T02:29:14.418Z,12.30
2018-04-24T02:31:40.568Z,12.50
2018-04-24T02:34:07.791Z,12.40
2018-04-24T02:36:34.021Z,12.40
2018-04-24T02:39:00.268Z,12.40
2018-04-24T02:41:27.174Z,12.40
2018-04-24T02:43:54.148Z,12.40
2018-04-24T02:46:20.323Z,12.40
2018-04-24T02:48:46.475Z,12.40
2018-04-24T02:51:12.659Z,12.40
2018-04-24T02:53:39.555Z,12.30
2018-04-24T02:56:05.787Z,12.30
2018-04-24T02:58:32.013Z,12.30
2018-04-24T03:00:58.230Z,12.30
2018-04-24T03:03:24.474Z,12.30
2018-04-24T03:05:50.637Z,12.20
2018-04-24T03:08:17.653Z,12.20
2018-04-24T03:10:43.896Z,12.20
2018-04-24T03:13:10.826Z,12.20
2018-04-24T03:15:37.048Z,12.20
2018-04-24T03:18:03.233Z,12.20
2018-04-24T03:20:29.485Z,12.10
2018-04-24T03:22:56.393Z,12.00
2018-04-24T03:25:22.613Z,12.00
2018-04-24T03:27:49.537Z,12.00
2018-04-24T03:30:15.739Z,12.00
2018-04-24T03:32:41.903Z,11.90
2018-04-24T03:35:08.802Z,11.70
2018-04-24T03:37:34.977Z,11.60
2018-04-24T03:40:01.949Z,11.80
2018-04-24T03:42:28.159Z,11.80
2018-04-24T03:44:54.309Z,11.90
2018-04-24T03:47:20.493Z,11.90
2018-04-24T03:49:46.642Z,11.90
2018-04-24T03:52:13.617Z,11.70
2018-04-24T03:54:39.773Z,11.70
2018-04-24T03:57:05.984Z,11.80
2018-04-24T03:59:32.213Z,11.80
2018-04-24T04:01:58.382Z,11.70
2018-04-24T04:04:25.276Z,11.60
2018-04-24T04:06:51.493Z,11.50
2018-04-24T04:09:17.656Z,11.50
2018-04-24T04:11:43.922Z,11.40
2018-04-24T04:14:10.869Z,11.50
2018-04-24T04:16:37.851Z,11.60
2018-04-24T04:19:16.366Z,11.60
2018-04-24T04:21:54.842Z,11.60
2018-04-24T04:27:21.265Z,11.60
2018-04-24T04:29:47.499Z,11.60
2018-04-24T04:32:13.689Z,11.60
2018-04-24T04:34:39.868Z,11.70
2018-04-24T04:37:06.046Z,11.70
2018-04-24T04:39:32.234Z,11.70
2018-04-24T04:41:59.207Z,11.80
2018-04-24T04:44:25.336Z,11.80
2018-04-24T04:46:51.505Z,11.80
2018-04-24T04:49:17.728Z,11.70
2018-04-24T04:51:43.906Z,11.70
2018-04-24T04:54:10.132Z,11.80
2018-04-24T04:56:36.370Z,11.80
2018-04-24T04:59:02.505Z,11.80
2018-04-24T05:01:28.683Z,11.90
2018-04-24T05:03:54.894Z,11.90
2018-04-24T05:06:21.094Z,12.00
2018-04-24T05:08:47.337Z,12.00
2018-04-24T05:11:13.521Z,12.10
2018-04-24T05:13:40.429Z,12.20
2018-04-24T05:16:06.649Z,12.20
2018-04-24T05:18:32.865Z,12.20
2018-04-24T05:20:59.085Z,12.40
2018-04-24T05:23:25.251Z,12.40
2018-04-24T05:25:51.460Z,12.40
2018-04-24T05:28:17.648Z,12.40
2018-04-24T05:30:43.843Z,12.40
2018-04-24T05:33:10.757Z,12.60
2018-04-24T05:35:36.961Z,12.60
2018-04-24T05:38:03.177Z,12.70
2018-04-24T05:40:29.432Z,12.80
2018-04-24T05:42:55.634Z,12.80
2018-04-24T05:45:21.849Z,12.80
2018-04-24T05:47:48.034Z,13.00
2018-04-24T05:50:14.225Z,13.20
2018-04-24T05:52:40.432Z,13.20
2018-04-24T05:55:06.697Z,13.40
2018-04-24T05:57:32.897Z,13.40
2018-04-24T05:59:59.065Z,13.60
2018-04-24T06:02:25.314Z,13.50
2018-04-24T06:04:52.283Z,13.80
2018-04-24T06:07:18.481Z,13.70
2018-04-24T06:09:44.690Z,13.70
2018-04-24T06:12:10.927Z,13.80
2018-04-24T06:14:37.120Z,13.90
2018-04-24T06:17:03.458Z,14.20
2018-04-24T06:19:29.679Z,14.30
2018-04-24T06:21:55.859Z,14.30
2018-04-24T06:24:22.102Z,14.20
2018-04-24T06:26:49.015Z,14.30
2018-04-24T06:29:15.195Z,14.20
2018-04-24T06:31:41.392Z,14.30
2018-04-24T06:34:08.392Z,14.50
2018-04-24T06:36:34.551Z,14.50
2018-04-24T06:39:00.720Z,14.60
2018-04-24T06:41:26.895Z,14.70
2018-04-24T06:43:53.716Z,14.60
2018-04-24T06:46:19.885Z,14.80
2018-04-24T06:48:46.805Z,15.10
2018-04-24T06:51:13.029Z,15.10
2018-04-24T06:53:39.171Z,15.30
2018-04-24T06:56:05.343Z,15.20
2018-04-24T06:58:31.512Z,15.30
2018-04-24T07:00:57.741Z,15.50
2018-04-24T07:03:24.031Z,15.70
2018-04-24T07:05:50.245Z,15.70
2018-04-24T07:08:16.487Z,15.90
2018-04-24T07:10:42.722Z,16.10
2018-04-24T07:13:08.923Z,15.90
2018-04-24T07:15:35.861Z,16.00
2018-04-24T07:18:02.799Z,16.00
2018-04-24T07:20:29.672Z,16.10
2018-04-24T07:22:55.911Z,16.10
2018-04-24T07:25:22.096Z,16.20
2018-04-24T07:27:48.322Z,16.40
2018-04-24T07:30:15.194Z,16.40
2018-04-24T07:32:42.130Z,16.70
2018-04-24T07:35:08.360Z,16.70
2018-04-24T07:37:34.561Z,16.70
2018-04-24T07:40:00.748Z,17.20
2018-04-24T07:42:26.937Z,17.40
2018-04-24T07:44:53.865Z,17.30
2018-04-24T07:47:20.730Z,17.30
2018-04-24T07:49:46.943Z,17.10
2018-04-24T07:52:13.903Z,17.10
2018-04-24T07:54:40.925Z,17.10
2018-04-24T07:57:07.157Z,17.00
2018-04-24T07:59:34.047Z,17.20
2018-04-24T08:02:00.221Z,17.10
2018-04-24T08:04:26.390Z,17.30
2018-04-24T08:06:52.638Z,17.40
2018-04-24T08:09:18.753Z,17.40
2018-04-24T08:11:44.948Z,17.40
2018-04-24T08:14:11.804Z,18.00
2018-04-24T08:16:38.855Z,18.30
2018-04-24T08:19:04.992Z,18.30
2018-04-24T08:21:31.207Z,17.80
2018-04-24T08:23:58.162Z,17.70
2018-04-24T08:26:24.371Z,17.70
2018-04-24T08:28:51.345Z,17.20
2018-04-24T08:31:17.556Z,17.20
2018-04-24T08:33:43.808Z,17.20
2018-04-24T08:36:09.945Z,17.30
2018-04-24T08:38:36.153Z,17.30
2018-04-24T08:41:02.397Z,17.00
2018-04-24T08:43:28.595Z,17.00
2018-04-24T08:45:55.521Z,17.20
2018-04-24T08:48:22.452Z,17.40
2018-04-24T08:50:48.592Z,17.30
2018-04-24T08:53:15.585Z,17.70
2018-04-24T08:55:41.770Z,17.70
2018-04-24T08:58:08.778Z,17.80
2018-04-24T09:00:35.074Z,17.80
2018-04-24T09:03:01.334Z,17.90
2018-04-24T09:05:27.610Z,18.00
2018-04-24T09:07:54.469Z,17.50
2018-04-24T09:10:20.637Z,17.50
2018-04-24T09:12:46.934Z,17.50
2018-04-24T09:15:13.180Z,17.60
2018-04-24T09:17:39.404Z,18.10
2018-04-24T09:20:05.641Z,18.00
2018-04-24T09:22:31.848Z,18.50
2018-04-24T09:24:58.083Z,18.50
2018-04-24T09:27:24.206Z,18.60
2018-04-24T09:29:56.653Z,18.90
2018-04-24T09:32:23.551Z,18.60
2018-04-24T09:34:49.771Z,18.60
2018-04-24T09:37:16.015Z,18.30
2018-04-24T09:39:42.181Z,18.20
2018-04-24T09:42:09.150Z,18.30
2018-04-24T09:44:35.323Z,18.30
2018-04-24T09:47:01.609Z,18.40
2018-04-24T09:49:27.825Z,18.30
2018-04-24T09:51:53.994Z,18.20
2018-04-24T09:54:20.194Z,18.60
2018-04-24T09:56:46.425Z,18.90
2018-04-24T09:59:12.660Z,19.10
2018-04-24T10:01:38.777Z,19.30
2018-04-24T10:04:04.984Z,19.50
2018-04-24T10:06:32.013Z,19.90
2018-04-24T10:08:59.012Z,19.80
2018-04-24T10:11:25.883Z,19.70
2018-04-24T10:13:52.056Z,19.60
2018-04-24T10:16:18.189Z,19.40
2018-04-24T10:18:44.332Z,19.40
2018-04-24T10:21:10.479Z,19.50
2018-04-24T10:23:36.699Z,19.60
2018-04-24T10:26:02.937Z,19.50
2018-04-24T10:28:29.155Z,19.30
2018-04-24T10:30:55.396Z,19.10
2018-04-24T10:33:21.608Z,18.90
2018-04-24T10:35:47.887Z,18.80
2018-04-24T10:38:14.917Z,18.70
2018-04-24T10:40:41.088Z,18.70
2018-04-24T10:43:07.279Z,18.90
2018-04-24T10:45:34.237Z,19.40
2018-04-24T10:48:01.275Z,19.70
2018-04-24T10:50:28.092Z,19.50
2018-04-24T10:52:54.254Z,19.50
2018-04-24T10:55:21.122Z,19.60
2018-04-24T10:57:47.350Z,19.60
2018-04-24T11:00:13.526Z,19.50
2018-04-24T11:02:39.755Z,19.20
2018-04-24T11:05:05.924Z,19.40
2018-04-24T11:07:32.127Z,19.60
2018-04-24T11:09:59.034Z,19.70
2018-04-24T11:12:25.273Z,19.60
2018-04-24T11:14:51.426Z,19.90
2018-04-24T11:17:18.324Z,20.10
2018-04-24T11:19:44.482Z,20.10
2018-04-24T11:22:11.512Z,19.70
2018-04-24T11:24:37.723Z,19.70
2018-04-24T11:27:03.932Z,19.70
2018-04-24T11:29:30.178Z,19.60
2018-04-24T11:31:56.399Z,19.80
2018-04-24T11:34:22.679Z,19.60
2018-04-24T11:36:48.871Z,19.90
2018-04-24T11:39:15.078Z,20.30
2018-04-24T11:41:41.306Z,20.80
2018-04-24T11:44:08.347Z,20.80
2018-04-24T11:46:34.610Z,20.80
2018-04-24T11:49:00.783Z,20.90
2018-04-24T11:51:27.019Z,21.00
2018-04-24T11:53:53.269Z,20.50
2018-04-24T11:56:19.521Z,20.50
2018-04-24T11:58:45.815Z,20.60
2018-04-24T12:01:11.999Z,20.80
2018-04-24T12:03:38.961Z,20.50
2018-04-24T12:06:05.149Z,20.60
2018-04-24T12:08:31.352Z,20.80
2018-04-24T12:10:57.542Z,21.20
2018-04-24T12:13:23.724Z,21.30
2018-04-24T12:15:50.026Z,21.10
2018-04-24T12:18:16.141Z,21.10
2018-04-24T12:20:43.046Z,20.30
2018-04-24T12:23:09.236Z,20.30
2018-04-24T12:25:35.469Z,20.60
2018-04-24T12:28:01.696Z,20.60
2018-04-24T12:30:27.878Z,20.90
2018-04-24T12:32:54.866Z,21.80
2018-04-24T12:35:21.053Z,21.80
2018-04-24T12:37:47.208Z,21.60
2018-04-24T12:40:13.431Z,20.90
2018-04-24T12:42:39.617Z,21.20
2018-04-24T12:45:05.955Z,21.20
2018-04-24T12:47:32.141Z,21.20
2018-04-24T12:49:58.356Z,20.90
2018-04-24T12:52:24.614Z,21.40
2018-04-24T12:54:50.840Z,21.40
2018-04-24T12:57:16.981Z,21.40
2018-04-24T12:59:43.164Z,21.40
2018-04-24T13:02:09.369Z,20.90
2018-04-24T13:04:36.313Z,20.70
2018-04-24T13:07:02.459Z,20.70
2018-04-24T13:09:28.684Z,20.70
2018-04-24T13:11:54.853Z,21.20
2018-04-24T13:14:21.005Z,20.90
2018-04-24T13:16:47.267Z,20.90
2018-04-24T13:19:13.449Z,21.10
2018-04-24T13:21:39.577Z,21.60
2018-04-24T13:24:05.789Z,21.70
2018-04-24T13:26:32.016Z,21.60
2018-04-24T13:28:58.212Z,20.70
2018-04-24T13:31:24.410Z,20.70
2018-04-24T13:33:50.505Z,21.50
2018-04-24T13:36:16.735Z,21.80
2018-04-24T13:38:42.955Z,21.60
2018-04-24T13:41:09.175Z,21.90
2018-04-24T13:43:35.327Z,21.80
2018-04-24T13:46:01.511Z,21.50
2018-04-24T13:48:27.712Z,21.90
2018-04-24T13:50:54.674Z,21.90
2018-04-24T13:53:20.910Z,21.90
2018-04-24T13:55:47.098Z,21.50
2018-04-24T13:58:13.938Z,21.90
2018-04-24T14:00:40.174Z,22.20
2018-04-24T14:03:07.114Z,21.90
2018-04-24T14:05:34.016Z,22.30
2018-04-24T14:08:00.219Z,22.30
2018-04-24T14:10:26.433Z,22.40
2018-04-24T14:12:53.330Z,22.30
2018-04-24T14:15:19.551Z,22.30
2018-04-24T14:17:45.777Z,22.00
2018-04-24T14:20:12.009Z,22.00
2018-04-24T14:22:38.206Z,22.00
2018-04-24T14:25:04.375Z,22.30
2018-04-24T14:27:30.573Z,22.40
2018-04-24T14:29:56.748Z,22.50
2018-04-24T14:32:22.908Z,22.50
2018-04-24T14:34:49.069Z,22.20
2018-04-24T14:37:15.231Z,22.00
2018-04-24T14:39:41.445Z,21.30
2018-04-24T14:42:07.663Z,21.30
2018-04-24T14:44:33.779Z,21.10
2018-04-24T14:46:59.931Z,21.00
2018-04-24T14:49:26.113Z,21.20
2018-04-24T14:51:52.290Z,20.70
2018-04-24T14:54:18.519Z,20.60
2018-04-24T14:56:44.669Z,21.00
2018-04-24T14:59:11.602Z,21.20
2018-04-24T15:01:38.501Z,21.20
2018-04-24T15:04:04.705Z,21.20
2018-04-24T15:06:41.972Z,21.20
2018-04-24T15:09:08.985Z,21.30
2018-04-24T15:11:35.236Z,21.20
2018-04-24T15:14:02.189Z,21.00
2018-04-24T15:16:29.158Z,21.10
2018-04-24T15:18:55.394Z,21.10
2018-04-24T15:21:21.641Z,21.10
2018-04-24T15:23:47.807Z,21.10
2018-04-24T15:26:14.017Z,20.90
2018-04-24T15:28:40.214Z,20.60
2018-04-24T15:31:06.441Z,20.70
2018-04-24T15:33:32.614Z,20.60
2018-04-24T15:35:59.552Z,20.80
2018-04-24T15:38:25.773Z,20.80
2018-04-24T15:40:52.041Z,20.90
2018-04-24T15:43:18.285Z,21.10
2018-04-24T15:45:44.510Z,21.20
2018-04-24T15:48:10.695Z,21.20
2018-04-24T15:50:36.847Z,21.10
2018-04-24T15:53:03.752Z,20.90
2018-04-24T15:55:29.962Z,20.80
2018-04-24T15:57:56.165Z,20.80
2018-04-24T16:00:22.315Z,20.70
2018-04-24T16:02:48.632Z,20.70
2018-04-24T16:05:14.739Z,20.70
2018-04-24T16:07:40.977Z,20.60
2018-04-24T16:10:07.170Z,20.50
2018-04-24T16:12:34.115Z,20.30
2018-04-24T16:15:00.308Z,20.30
2018-04-24T16:17:26.468Z,20.40
2018-04-24T16:19:52.732Z,20.30
2018-04-24T16:22:18.908Z,20.20
2018-04-24T16:24:45.113Z,20.10
2018-04-24T16:27:11.304Z,20.10
2018-04-24T16:29:37.513Z,19.90
2018-04-24T16:32:03.701Z,20.00
2018-04-24T16:34:29.917Z,20.10
2018-04-24T16:36:56.091Z,19.80
2018-04-24T16:39:23.165Z,19.80
2018-04-24T16:41:49.203Z,19.70
2018-04-24T16:44:15.390Z,19.60
2018-04-24T16:46:42.318Z,19.50
2018-04-24T16:49:09.266Z,19.60
2018-04-24T16:51:35.482Z,19.60
2018-04-24T16:54:01.663Z,19.60
2018-04-24T16:56:27.880Z,19.50
2018-04-24T16:58:54.051Z,19.40
2018-04-24T17:01:20.259Z,19.40
2018-04-24T17:03:46.520Z,19.50
2018-04-24T17:06:12.830Z,19.40
2018-04-24T17:08:39.689Z,19.40
2018-04-24T17:11:06.996Z,19.40
2018-04-24T17:13:33.197Z,19.30
2018-04-24T17:15:59.374Z,19.40
2018-04-24T17:18:25.588Z,19.40
2018-04-24T17:20:51.747Z,19.30
2018-04-24T17:23:17.915Z,19.20
2018-04-24T17:25:44.823Z,19.30
2018-04-24T17:28:11.056Z,19.30
2018-04-24T17:30:37.201Z,19.30
2018-04-24T17:33:03.438Z,19.30
2018-04-24T17:35:30.404Z,19.10
2018-04-24T17:37:57.359Z,19.10
2018-04-24T17:40:23.551Z,19.10
2018-04-24T17:42:50.481Z,19.10
2018-04-24T17:45:16.713Z,19.10
2018-04-24T17:47:43.668Z,18.80
2018-04-24T17:50:10.668Z,18.80
2018-04-24T17:52:36.854Z,18.70
2018-04-24T17:55:03.840Z,18.70
2018-04-24T17:57:30.013Z,18.70
2018-04-24T17:59:56.200Z,18.60
2018-04-24T18:02:22.357Z,18.40
2018-04-24T18:04:48.531Z,18.20
2018-04-24T18:07:14.723Z,18.10
2018-04-24T18:09:40.888Z,17.90
2018-04-24T18:12:07.098Z,17.80
2018-04-24T18:14:34.021Z,17.60
2018-04-24T18:17:00.271Z,17.60
2018-04-24T18:19:26.502Z,17.60
2018-04-24T18:21:52.727Z,17.50
2018-04-24T18:24:19.640Z,17.30
2018-04-24T18:26:45.826Z,17.30
2018-04-24T18:29:12.066Z,17.20
2018-04-24T18:31:38.249Z,17.20
2018-04-24T18:34:05.103Z,17.10
2018-04-24T18:36:32.094Z,17.00
2018-04-24T18:38:58.371Z,17.00
2018-04-24T18:41:25.334Z,16.70
2018-04-24T18:43:51.589Z,16.70
2018-04-24T18:46:17.841Z,16.60
2018-04-24T18:48:44.068Z,16.50
2018-04-24T18:51:10.298Z,16.60
2018-04-24T18:53:37.239Z,16.60
2018-04-24T18:56:03.501Z,16.60
2018-04-24T18:58:30.473Z,16.10
2018-04-24T19:00:56.674Z,16.10
2018-04-24T19:03:23.623Z,16.00
2018-04-24T19:05:50.512Z,15.90
2018-04-24T19:08:16.753Z,15.90
2018-04-24T19:10:42.917Z,16.10
2018-04-24T19:13:09.943Z,15.80
2018-04-24T19:15:36.846Z,15.70
2018-04-24T19:18:03.107Z,15.70
2018-04-24T19:20:30.098Z,15.70
2018-04-24T19:22:56.276Z,15.60
2018-04-24T19:25:28.614Z,15.60
2018-04-24T19:27:54.832Z,15.60
2018-04-24T19:30:20.998Z,15.40
2018-04-24T19:32:47.236Z,15.40
2018-04-24T19:35:13.463Z,15.50
2018-04-24T19:37:39.699Z,15.40
2018-04-24T19:40:12.079Z,15.30
2018-04-24T19:42:38.357Z,15.10
2018-04-24T19:45:04.604Z,15.10
2018-04-24T19:47:30.822Z,15.10
2018-04-24T19:50:02.997Z,15.00
2018-04-24T19:52:29.214Z,15.00
2018-04-24T19:55:01.595Z,15.10
2018-04-24T19:57:27.800Z,15.20
2018-04-24T19:59:53.978Z,15.10
2018-04-24T20:02:20.205Z,15.10
2018-04-24T20:04:46.436Z,15.20
2018-04-24T20:07:12.657Z,15.10
2018-04-24T20:09:38.822Z,15.10
2018-04-24T20:12:05.768Z,14.90
2018-04-24T20:14:32.741Z,14.90
2018-04-24T20:16:58.976Z,14.90
2018-04-24T20:19:25.239Z,14.70
2018-04-24T20:21:51.409Z,14.60
2018-04-24T20:24:17.658Z,14.50
2018-04-24T20:26:43.804Z,14.40
2018-04-24T20:29:10.014Z,14.30
2018-04-24T20:31:36.183Z,14.20
2018-04-24T20:34:02.403Z,14.20
2018-04-24T20:36:28.617Z,14.10
2018-04-24T20:38:54.752Z,14.10
2018-04-24T20:41:20.989Z,14.10
2018-04-24T20:43:47.173Z,14.00
2018-04-24T20:46:13.402Z,13.90
2018-04-24T20:48:39.625Z,13.90
2018-04-24T20:51:05.790Z,13.80
2018-04-24T20:53:31.990Z,13.90
2018-04-24T20:55:58.163Z,13.80
2018-04-24T20:58:24.353Z,13.80
2018-04-24T21:00:50.533Z,13.90
2018-04-24T21:03:17.533Z,13.70
2018-04-24T21:05:43.730Z,13.70
2018-04-24T21:08:09.909Z,13.80
2018-04-24T21:10:36.083Z,13.60
2018-04-24T21:13:02.217Z,13.70
2018-04-24T21:15:28.424Z,13.50
2018-04-24T21:17:55.341Z,13.60
2018-04-24T21:20:21.571Z,13.60
2018-04-24T21:22:48.494Z,13.60
2018-04-24T21:25:14.728Z,13.60
2018-04-24T21:27:40.945Z,13.70
2018-04-24T21:30:07.076Z,13.80
2018-04-24T21:32:33.246Z,13.80
2018-04-24T21:35:00.221Z,13.50
2018-04-24T21:37:26.422Z,13.50
2018-04-24T21:39:53.365Z,13.40
2018-04-24T21:42:20.344Z,13.40
2018-04-24T21:44:46.569Z,13.30
2018-04-24T21:47:12.735Z,13.40
2018-04-24T21:49:38.917Z,13.20
2018-04-24T21:52:05.124Z,13.20
2018-04-24T21:54:32.086Z,13.10
2018-04-24T21:56:58.304Z,13.10
2018-04-24T21:59:25.245Z,13.00
2018-04-24T22:01:52.179Z,13.00
2018-04-24T22:04:18.332Z,13.00
2018-04-24T22:06:44.571Z,13.00
2018-04-24T22:09:10.707Z,13.00
2018-04-24T22:11:36.919Z,13.00
2018-04-24T22:14:03.140Z,12.80
2018-04-24T22:16:29.328Z,12.70
2018-04-24T22:18:55.574Z,12.70
2018-04-24T22:21:22.507Z,12.80
2018-04-24T22:23:48.676Z,12.80
2018-04-24T22:26:14.818Z,12.90
2018-04-24T22:28:41.028Z,12.90
2018-04-24T22:31:07.184Z,12.90
2018-04-24T22:33:33.331Z,12.90
2018-04-24T22:35:59.512Z,12.80
2018-04-24T22:38:25.648Z,12.60
2018-04-24T22:40:51.843Z,12.70
2018-04-24T22:43:18.747Z,12.50
2018-04-24T22:45:44.896Z,12.50
2018-04-24T22:48:11.069Z,12.60
2018-04-24T22:50:37.258Z,12.40
2018-04-24T22:53:04.198Z,12.40
2018-04-24T22:55:30.411Z,12.30
2018-04-24T22:57:56.649Z,12.30
2018-04-24T23:00:22.828Z,12.30
2018-04-24T23:02:48.986Z,12.30
2018-04-24T23:05:15.209Z,12.30
2018-04-24T23:07:41.370Z,12.30
2018-04-24T23:10:08.165Z,12.20
2018-04-24T23:12:46.772Z,12.20
2018-04-24T23:15:25.209Z,12.30
2018-04-24T23:18:03.726Z,12.20
2018-04-24T23:20:29.822Z,12.10
2018-04-24T23:22:55.962Z,12.20
2018-04-24T23:25:22.207Z,12.10
2018-04-24T23:27:48.484Z,12.00
2018-04-24T23:30:14.631Z,12.00
2018-04-24T23:32:40.867Z,12.00
2018-04-24T23:35:07.074Z,12.00
2018-04-24T23:37:33.361Z,11.90
2018-04-24T23:39:59.610Z,11.70
2018-04-24T23:42:26.590Z,11.90
2018-04-24T23:44:52.817Z,11.80
2018-04-24T23:47:19.053Z,11.80
2018-04-24T23:49:45.244Z,11.80
2018-04-24T23:52:12.194Z,11.70
2018-04-24T23:54:39.076Z,11.70
2018-04-24T23:57:05.289Z,11.70
2018-04-24T23:59:31.510Z,11.70
